createdAt,value
2022-09-24T00:01:35.649Z,4.00
2022-09-24T00:04:07.481Z,3.00
2022-09-24T00:06:39.944Z,2.50
2022-09-24T00:09:09.909Z,3.00
2022-09-24T00:11:40.192Z,3.00
2022-09-24T00:14:09.996Z,3.75
2022-09-24T00:16:41.324Z,3.00
2022-09-24T00:19:11.825Z,2.25
2022-09-24T00:21:41.720Z,2.00
2022-09-24T00:24:37.510Z,3.00
2022-09-24T00:27:08.094Z,2.25
2022-09-24T00:29:37.908Z,2.75
2022-09-24T00:32:07.766Z,1.00
2022-09-24T00:34:37.196Z,3.00
2022-09-24T00:37:07.514Z,1.00
2022-09-24T00:39:36.817Z,1.00
2022-09-24T00:42:06.267Z,1.50
2022-09-24T00:44:47.959Z,0.25
2022-09-24T00:47:27.466Z,2.50
2022-09-24T00:50:07.425Z,1.25
2022-09-24T00:52:46.706Z,1.00
2022-09-24T00:55:17.216Z,1.00
2022-09-24T00:57:47.642Z,1.00
2022-09-24T01:00:17.212Z,1.00
2022-09-24T01:02:49.104Z,0.75
2022-09-24T01:05:19.397Z,0.50
2022-09-24T01:07:50.075Z,2.00
2022-09-24T01:10:43.585Z,1.00
2022-09-24T01:13:25.659Z,1.00
2022-09-24T01:16:17.756Z,1.75
2022-09-24T01:18:56.503Z,0.25
2022-09-24T01:21:37.548Z,0.00
2022-09-24T01:24:18.968Z,0.00
2022-09-24T01:26:49.472Z,0.00
2022-09-24T01:29:24.911Z,0.50
2022-09-24T01:32:07.144Z,1.00
2022-09-24T01:34:43.013Z,0.00
2022-09-24T01:37:15.984Z,0.50
2022-09-24T01:39:47.298Z,1.00
2022-09-24T01:42:18.121Z,0.75
2022-09-24T01:44:48.791Z,0.00
2022-09-24T01:47:40.974Z,2.00
2022-09-24T01:50:12.780Z,0.75
2022-09-24T01:53:04.591Z,0.00
2022-09-24T01:55:37.418Z,0.00
2022-09-24T01:58:10.283Z,0.25
2022-09-24T02:00:43.282Z,2.75
2022-09-24T02:03:21.554Z,0.00
2022-09-24T02:06:26.752Z,1.00
2022-09-24T02:08:59.369Z,0.00
2022-09-24T02:11:29.554Z,0.00
2022-09-24T02:14:07.453Z,1.00
2022-09-24T02:16:41.935Z,0.75
2022-09-24T02:19:13.310Z,0.00
2022-09-24T02:21:44.318Z,1.00
2022-09-24T02:24:17.636Z,0.25
2022-09-24T02:26:48.120Z,0.00
2022-09-24T02:29:19.792Z,0.00
2022-09-24T02:31:51.105Z,1.00
2022-09-24T02:34:23.861Z,0.00
2022-09-24T02:37:26.422Z,0.00
2022-09-24T02:39:55.899Z,0.00
2022-09-24T02:42:25.589Z,0.00
2022-09-24T02:44:58.728Z,0.00
2022-09-24T02:47:29.053Z,0.00
2022-09-24T02:49:58.419Z,1.25
2022-09-24T02:52:28.007Z,0.00
2022-09-24T02:54:57.344Z,0.00
2022-09-24T02:57:26.864Z,1.00
2022-09-24T02:59:56.227Z,1.00
2022-09-24T03:02:25.873Z,2.00
2022-09-24T03:04:55.873Z,1.00
2022-09-24T03:07:25.394Z,0.50
2022-09-24T03:09:54.853Z,0.25
2022-09-24T03:12:24.340Z,0.00
2022-09-24T03:14:54.027Z,1.00
2022-09-24T03:17:23.329Z,1.00
2022-09-24T03:19:52.864Z,1.00
2022-09-24T03:22:22.680Z,0.00
2022-09-24T03:24:52.002Z,0.75
2022-09-24T03:27:22.569Z,0.00
2022-09-24T03:30:09.814Z,0.00
2022-09-24T03:32:40.750Z,0.00
2022-09-24T03:35:10.609Z,1.00
2022-09-24T03:37:40.188Z,0.00
2022-09-24T03:40:09.835Z,0.00
2022-09-24T03:42:39.282Z,0.00
2022-09-24T03:45:08.983Z,0.00
2022-09-24T03:47:38.762Z,0.50
2022-09-24T03:50:08.434Z,1.00
2022-09-24T03:52:37.875Z,0.00
2022-09-24T03:55:07.685Z,0.25
2022-09-24T03:57:37.184Z,0.00
2022-09-24T04:00:06.647Z,0.00
2022-09-24T04:02:37.727Z,0.00
2022-09-24T04:05:08.517Z,1.00
2022-09-24T04:07:38.448Z,1.00
2022-09-24T04:10:08.438Z,1.25
2022-09-24T04:12:37.883Z,0.00
2022-09-24T04:15:07.502Z,0.50
2022-09-24T04:17:36.920Z,0.00
2022-09-24T04:20:06.550Z,0.00
2022-09-24T04:22:36.077Z,0.00
2022-09-24T04:25:05.571Z,1.00
2022-09-24T04:27:38.186Z,1.00
2022-09-24T04:30:08.421Z,1.00
2022-09-24T04:32:37.918Z,1.00
2022-09-24T04:35:07.864Z,0.00
2022-09-24T04:37:37.476Z,0.75
2022-09-24T04:40:07.246Z,1.50
2022-09-24T04:42:36.750Z,0.75
2022-09-24T04:45:06.477Z,0.00
2022-09-24T04:47:36.276Z,0.75
2022-09-24T04:50:06.891Z,0.25
2022-09-24T04:52:36.994Z,1.00
2022-09-24T04:55:07.229Z,0.00
2022-09-24T04:57:37.847Z,1.00
2022-09-24T05:00:08.863Z,0.25
2022-09-24T05:02:38.872Z,0.50
2022-09-24T05:05:08.554Z,1.00
2022-09-24T05:07:38.476Z,1.50
2022-09-24T05:10:08.294Z,1.00
2022-09-24T05:12:37.867Z,0.50
2022-09-24T05:15:07.658Z,1.00
2022-09-24T05:17:41.145Z,0.00
2022-09-24T05:20:12.597Z,0.00
2022-09-24T05:22:45.676Z,2.00
2022-09-24T05:25:16.734Z,1.00
2022-09-24T05:27:49.981Z,0.00
2022-09-24T05:30:20.632Z,0.75
2022-09-24T05:32:54.206Z,0.50
2022-09-24T05:35:24.306Z,1.00
2022-09-24T05:37:54.820Z,1.50
2022-09-24T05:40:43.292Z,0.75
2022-09-24T05:43:13.160Z,1.00
2022-09-24T05:45:46.076Z,2.00
2022-09-24T05:48:15.501Z,0.50
2022-09-24T05:50:44.845Z,2.00
2022-09-24T05:53:14.614Z,2.00
2022-09-24T05:55:44.533Z,1.00
2022-09-24T05:58:14.853Z,1.25
2022-09-24T06:00:45.121Z,1.50
2022-09-24T06:03:17.254Z,1.00
2022-09-24T06:05:47.766Z,0.00
2022-09-24T06:08:21.844Z,2.00
2022-09-24T06:10:51.409Z,1.00
2022-09-24T06:13:22.233Z,1.50
2022-09-24T06:15:51.782Z,2.00
2022-09-24T06:18:21.218Z,0.50
2022-09-24T06:20:51.032Z,1.00
2022-09-24T06:23:20.507Z,1.75
2022-09-24T06:25:53.305Z,1.00
2022-09-24T06:28:22.669Z,1.75
2022-09-24T06:30:52.545Z,1.75
2022-09-24T06:33:22.524Z,0.00
2022-09-24T06:35:51.919Z,2.00
2022-09-24T06:38:21.757Z,2.75
2022-09-24T06:40:51.327Z,1.50
2022-09-24T06:43:20.850Z,3.25
2022-09-24T06:45:50.496Z,2.00
2022-09-24T06:48:20.098Z,2.50
2022-09-24T06:50:49.602Z,3.00
2022-09-24T06:53:19.658Z,1.75
2022-09-24T06:55:51.336Z,1.75
2022-09-24T06:58:22.066Z,3.00
2022-09-24T07:01:01.770Z,1.75
2022-09-24T07:03:33.631Z,2.00
2022-09-24T07:06:07.374Z,2.00
2022-09-24T07:08:37.042Z,2.00
2022-09-24T07:11:06.734Z,1.00
2022-09-24T07:13:36.360Z,2.00
2022-09-24T07:16:05.813Z,2.00
2022-09-24T07:18:36.445Z,2.50
2022-09-24T07:21:05.838Z,2.50
2022-09-24T07:23:35.207Z,2.00
2022-09-24T07:26:04.671Z,1.50
2022-09-24T07:28:33.982Z,2.00
2022-09-24T07:31:03.660Z,2.25
2022-09-24T07:33:33.770Z,2.25
2022-09-24T07:36:12.329Z,2.00
2022-09-24T07:38:41.650Z,2.25
2022-09-24T07:41:12.649Z,2.50
2022-09-24T07:43:42.202Z,2.00
2022-09-24T07:46:13.698Z,2.00
2022-09-24T07:48:43.090Z,2.25
2022-09-24T07:51:12.703Z,2.75
2022-09-24T07:53:42.336Z,2.00
2022-09-24T07:56:12.494Z,2.00
2022-09-24T07:58:42.054Z,1.25
2022-09-24T08:01:12.501Z,3.00
2022-09-24T08:03:42.648Z,1.00
2022-09-24T08:06:12.337Z,2.00
2022-09-24T08:08:42.259Z,2.00
2022-09-24T08:11:14.025Z,2.50
2022-09-24T08:13:43.489Z,2.00
2022-09-24T08:16:13.020Z,2.50
2022-09-24T08:18:44.759Z,2.00
2022-09-24T08:21:14.702Z,2.25
2022-09-24T08:23:45.415Z,2.50
2022-09-24T08:26:15.824Z,2.00
2022-09-24T08:28:45.357Z,2.00
2022-09-24T08:31:15.174Z,2.50
2022-09-24T08:33:47.689Z,2.25
2022-09-24T08:36:17.826Z,2.00
2022-09-24T08:38:47.319Z,3.50
2022-09-24T08:41:23.402Z,1.00
2022-09-24T08:44:01.593Z,4.00
2022-09-24T08:46:52.435Z,2.00
2022-09-24T08:49:25.766Z,2.00
2022-09-24T08:52:10.468Z,2.00
2022-09-24T08:54:41.759Z,1.25
2022-09-24T08:57:15.007Z,3.00
2022-09-24T08:59:46.893Z,2.25
2022-09-24T09:02:23.103Z,3.75
2022-09-24T09:04:56.150Z,2.00
2022-09-24T09:07:29.472Z,2.00
2022-09-24T09:10:06.690Z,2.50
2022-09-24T09:12:40.147Z,1.25
2022-09-24T09:15:15.300Z,1.00
2022-09-24T09:17:52.203Z,2.00
2022-09-24T09:20:33.905Z,2.00
2022-09-24T09:23:24.884Z,2.75
2022-09-24T09:25:57.619Z,2.00
2022-09-24T09:28:31.224Z,2.00
2022-09-24T09:31:00.845Z,2.00
2022-09-24T09:33:38.755Z,3.00
2022-09-24T09:36:30.909Z,2.00
2022-09-24T09:39:24.481Z,2.00
2022-09-24T09:41:56.952Z,3.00
2022-09-24T09:44:31.485Z,3.25
2022-09-24T09:47:19.206Z,8.75
2022-09-24T09:49:50.944Z,2.25
2022-09-24T09:52:22.707Z,4.00
2022-09-24T09:54:52.648Z,4.50
2022-09-24T09:57:24.111Z,3.00
2022-09-24T09:59:55.752Z,2.75
2022-09-24T10:02:36.602Z,2.75
2022-09-24T10:05:07.753Z,3.50
2022-09-24T10:07:46.018Z,3.50
2022-09-24T10:10:25.515Z,4.50
2022-09-24T10:13:11.425Z,4.00
2022-09-24T10:15:54.440Z,4.25
2022-09-24T10:18:41.983Z,4.00
2022-09-24T10:21:14.205Z,4.25
2022-09-24T10:23:45.407Z,5.75
2022-09-24T10:26:17.934Z,5.75
2022-09-24T10:29:18.416Z,5.25
2022-09-24T10:31:50.351Z,6.00
2022-09-24T10:34:30.347Z,6.00
2022-09-24T10:37:10.894Z,6.50
2022-09-24T10:39:41.029Z,5.00
2022-09-24T10:42:27.049Z,6.25
2022-09-24T10:44:57.910Z,9.50
2022-09-24T10:47:37.874Z,13.50
2022-09-24T10:50:19.342Z,15.00
2022-09-24T10:52:53.204Z,12.00
2022-09-24T10:55:26.222Z,15.75
2022-09-24T10:57:55.724Z,14.50
2022-09-24T11:00:26.327Z,14.00
2022-09-24T11:03:11.083Z,11.00
2022-09-24T11:05:47.036Z,10.25
2022-09-24T11:08:23.806Z,9.50
2022-09-24T11:10:56.826Z,10.00
2022-09-24T11:13:34.101Z,10.25
2022-09-24T11:16:06.903Z,9.25
2022-09-24T11:18:39.603Z,9.00
2022-09-24T11:21:21.560Z,8.50
2022-09-24T11:24:09.546Z,8.75
2022-09-24T11:26:48.236Z,10.50
2022-09-24T11:29:36.254Z,8.00
2022-09-24T11:32:11.453Z,9.00
2022-09-24T11:35:07.362Z,8.75
2022-09-24T11:37:47.559Z,7.50
2022-09-24T11:40:35.301Z,8.00
2022-09-24T11:43:14.181Z,7.50
2022-09-24T11:46:07.084Z,7.75
2022-09-24T11:48:37.096Z,9.75
2022-09-24T11:51:18.405Z,9.25
2022-09-24T11:53:53.663Z,8.50
2022-09-24T11:56:23.651Z,8.75
2022-09-24T11:59:02.372Z,7.50
2022-09-24T12:01:36.196Z,8.00
2022-09-24T12:04:32.304Z,8.00
2022-09-24T12:07:16.267Z,11.25
2022-09-24T12:09:52.113Z,7.25
2022-09-24T12:12:44.622Z,8.50
2022-09-24T12:15:19.753Z,7.75
2022-09-24T12:18:05.736Z,8.50
2022-09-24T12:20:41.800Z,8.00
2022-09-24T12:23:14.244Z,7.00
2022-09-24T12:25:46.456Z,6.50
2022-09-24T12:28:37.392Z,7.00
2022-09-24T12:31:35.534Z,5.75
2022-09-24T12:34:13.080Z,8.00
2022-09-24T12:36:42.757Z,6.75
2022-09-24T12:39:15.631Z,7.00
2022-09-24T12:41:47.009Z,6.75
2022-09-24T12:44:22.302Z,7.75
2022-09-24T12:46:59.549Z,6.00
2022-09-24T12:49:29.289Z,7.00
2022-09-24T12:51:59.604Z,6.00
2022-09-24T12:54:36.955Z,6.00
2022-09-24T12:57:08.596Z,8.00
2022-09-24T12:59:48.430Z,6.25
2022-09-24T13:02:20.182Z,7.00
2022-09-24T13:05:12.993Z,7.00
2022-09-24T13:07:42.810Z,5.75
2022-09-24T13:10:25.010Z,8.50
2022-09-24T13:12:55.647Z,7.00
2022-09-24T13:15:32.973Z,8.25
2022-09-24T13:18:09.234Z,9.25
2022-09-24T13:20:47.600Z,7.75
2022-09-24T13:23:20.977Z,7.00
2022-09-24T13:26:00.856Z,6.50
2022-09-24T13:28:38.230Z,6.50
2022-09-24T13:31:08.977Z,7.00
2022-09-24T13:33:42.903Z,8.00
2022-09-24T13:36:15.607Z,8.00
2022-09-24T13:38:47.787Z,9.50
2022-09-24T13:41:17.581Z,7.75
2022-09-24T13:44:08.589Z,6.75
2022-09-24T13:46:38.751Z,8.00
2022-09-24T13:49:13.473Z,6.75
2022-09-24T13:51:43.997Z,7.75
2022-09-24T13:54:13.661Z,8.00
2022-09-24T13:56:43.160Z,8.75
2022-09-24T13:59:15.421Z,9.00
2022-09-24T14:01:45.810Z,6.00
2022-09-24T14:04:25.264Z,8.50
2022-09-24T14:06:56.571Z,8.00
2022-09-24T14:09:34.262Z,6.50
2022-09-24T14:12:16.932Z,7.50
2022-09-24T14:14:48.952Z,9.00
2022-09-24T14:17:19.329Z,9.00
2022-09-24T14:19:50.038Z,7.00
2022-09-24T14:22:24.462Z,7.50
2022-09-24T14:24:57.774Z,7.25
2022-09-24T14:27:28.716Z,9.25
2022-09-24T14:30:02.148Z,7.00
2022-09-24T14:32:34.434Z,8.00
2022-09-24T14:35:33.422Z,8.25
2022-09-24T14:38:18.259Z,7.00
2022-09-24T14:41:11.288Z,10.50
2022-09-24T14:43:47.910Z,8.25
2022-09-24T14:46:30.312Z,8.75
2022-09-24T14:49:26.010Z,8.75
2022-09-24T14:51:58.842Z,8.00
2022-09-24T14:54:38.850Z,8.00
2022-09-24T14:57:16.250Z,8.75
2022-09-24T14:59:46.952Z,8.00
2022-09-24T15:02:23.503Z,8.50
2022-09-24T15:04:55.434Z,9.00
2022-09-24T15:07:30.218Z,8.00
2022-09-24T15:10:01.718Z,8.00
2022-09-24T15:12:36.329Z,8.00
2022-09-24T15:15:28.496Z,8.75
2022-09-24T15:17:59.050Z,8.25
2022-09-24T15:20:29.937Z,9.75
2022-09-24T15:23:00.517Z,7.25
2022-09-24T15:25:30.868Z,7.25
2022-09-24T15:28:01.028Z,9.00
2022-09-24T15:30:31.837Z,8.00
2022-09-24T15:33:02.174Z,10.50
2022-09-24T15:35:33.704Z,8.00
2022-09-24T15:38:03.356Z,10.00
2022-09-24T15:40:35.226Z,7.00
2022-09-24T15:43:05.051Z,8.00
2022-09-24T15:45:34.729Z,9.00
2022-09-24T15:48:04.252Z,8.25
2022-09-24T15:50:34.013Z,9.75
2022-09-24T15:53:04.397Z,10.00
2022-09-24T15:55:37.394Z,7.00
2022-09-24T15:58:15.875Z,8.25
2022-09-24T16:00:49.037Z,9.25
2022-09-24T16:03:28.590Z,9.00
2022-09-24T16:05:58.641Z,8.00
2022-09-24T16:08:28.308Z,9.25
2022-09-24T16:10:57.717Z,9.50
2022-09-24T16:13:27.688Z,9.00
2022-09-24T16:15:58.714Z,10.00
2022-09-24T16:18:31.489Z,9.75
2022-09-24T16:21:02.601Z,7.50
2022-09-24T16:23:32.603Z,9.25
2022-09-24T16:26:02.454Z,10.00
2022-09-24T16:28:31.937Z,10.00
2022-09-24T16:31:01.357Z,9.75
2022-09-24T16:33:30.702Z,10.25
2022-09-24T16:36:06.051Z,9.00
2022-09-24T16:38:37.178Z,9.00
2022-09-24T16:41:07.833Z,8.75
2022-09-24T16:43:37.085Z,8.75
2022-09-24T16:46:07.785Z,9.75
2022-09-24T16:48:37.390Z,7.75
2022-09-24T16:51:07.933Z,11.75
2022-09-24T16:53:37.903Z,9.00
2022-09-24T16:56:17.415Z,8.75
2022-09-24T16:58:48.372Z,9.75
2022-09-24T17:01:19.292Z,7.50
2022-09-24T17:03:58.536Z,9.75
2022-09-24T17:06:29.388Z,8.25
2022-09-24T17:09:17.539Z,10.00
2022-09-24T17:11:50.630Z,9.00
2022-09-24T17:14:20.732Z,8.75
2022-09-24T17:16:50.270Z,10.00
2022-09-24T17:19:19.711Z,10.25
2022-09-24T17:21:51.549Z,8.75
2022-09-24T17:24:21.935Z,9.25
2022-09-24T17:26:52.251Z,9.25
2022-09-24T17:29:26.481Z,11.25
2022-09-24T17:31:59.202Z,9.25
2022-09-24T17:34:29.254Z,7.00
2022-09-24T17:37:01.039Z,9.75
2022-09-24T17:39:32.189Z,9.25
2022-09-24T17:42:03.722Z,10.75
2022-09-24T17:44:33.525Z,8.25
2022-09-24T17:47:02.911Z,8.00
2022-09-24T17:49:32.728Z,11.00
2022-09-24T17:52:03.604Z,9.00
2022-09-24T17:54:33.548Z,10.00
2022-09-24T17:57:03.455Z,10.50
2022-09-24T17:59:32.808Z,9.00
2022-09-24T18:02:02.276Z,11.75
2022-09-24T18:04:32.886Z,9.00
2022-09-24T18:07:02.356Z,9.00
2022-09-24T18:09:32.177Z,10.00
2022-09-24T18:12:01.451Z,11.50
2022-09-24T18:14:30.828Z,9.25
2022-09-24T18:17:01.711Z,11.00
2022-09-24T18:19:31.657Z,10.00
2022-09-24T18:22:01.139Z,11.75
2022-09-24T18:24:30.514Z,7.75
2022-09-24T18:27:00.166Z,11.00
2022-09-24T18:29:30.077Z,9.50
2022-09-24T18:31:59.398Z,11.25
2022-09-24T18:34:28.710Z,10.00
2022-09-24T18:36:58.312Z,10.00
2022-09-24T18:39:28.226Z,10.25
2022-09-24T18:41:57.605Z,10.25
2022-09-24T18:44:27.729Z,9.25
2022-09-24T18:46:57.160Z,9.50
2022-09-24T18:49:26.525Z,10.75
2022-09-24T18:51:55.926Z,11.75
2022-09-24T18:54:26.020Z,8.00
2022-09-24T18:56:55.651Z,10.75
2022-09-24T18:59:25.308Z,9.25
2022-09-24T19:01:54.819Z,9.75
2022-09-24T19:04:27.966Z,10.00
2022-09-24T19:06:59.875Z,10.00
2022-09-24T19:09:29.299Z,11.25
2022-09-24T19:11:58.749Z,9.25
2022-09-24T19:14:28.338Z,9.50
2022-09-24T19:16:58.338Z,9.50
2022-09-24T19:19:27.737Z,10.25
2022-09-24T19:21:57.576Z,10.50
2022-09-24T19:24:27.207Z,10.00
2022-09-24T19:26:56.465Z,12.00
2022-09-24T19:29:26.696Z,10.00
2022-09-24T19:31:56.234Z,12.25
2022-09-24T19:34:25.812Z,11.00
2022-09-24T19:36:58.105Z,10.50
2022-09-24T19:39:27.568Z,11.00
2022-09-24T19:41:56.888Z,10.00
2022-09-24T19:44:26.161Z,10.25
2022-09-24T19:46:55.488Z,9.25
2022-09-24T19:49:25.085Z,10.00
2022-09-24T19:51:54.467Z,10.25
2022-09-24T19:54:23.980Z,10.00
2022-09-24T19:56:54.064Z,11.00
2022-09-24T19:59:24.998Z,11.25
2022-09-24T20:01:56.229Z,10.75
2022-09-24T20:04:25.989Z,11.00
2022-09-24T20:06:56.082Z,11.00
2022-09-24T20:09:25.550Z,10.75
2022-09-24T20:11:55.064Z,13.00
2022-09-24T20:14:24.901Z,9.25
2022-09-24T20:16:54.289Z,11.25
2022-09-24T20:19:23.558Z,11.00
2022-09-24T20:21:54.753Z,10.00
2022-09-24T20:24:24.267Z,10.50
2022-09-24T20:27:11.508Z,11.00
2022-09-24T20:29:41.971Z,11.00
2022-09-24T20:32:16.642Z,12.25
2022-09-24T20:34:46.046Z,9.50
2022-09-24T20:37:15.799Z,11.25
2022-09-24T20:39:45.083Z,12.25
2022-09-24T20:42:16.317Z,10.50
2022-09-24T20:44:47.392Z,12.25
2022-09-24T20:47:17.126Z,12.25
2022-09-24T20:49:49.240Z,12.00
2022-09-24T20:52:18.525Z,12.50
2022-09-24T20:54:48.432Z,11.00
2022-09-24T20:57:18.493Z,10.25
2022-09-24T20:59:47.830Z,10.75
2022-09-24T21:02:18.200Z,12.50
2022-09-24T21:04:47.728Z,11.50
2022-09-24T21:07:18.229Z,11.00
2022-09-24T21:09:47.674Z,14.75
2022-09-24T21:12:17.164Z,11.00
2022-09-24T21:14:46.579Z,12.00
2022-09-24T21:17:16.124Z,13.00
2022-09-24T21:19:47.717Z,12.00
2022-09-24T21:22:17.227Z,13.25
2022-09-24T21:24:46.593Z,11.00
2022-09-24T21:27:17.534Z,11.50
2022-09-24T21:29:50.262Z,11.75
2022-09-24T21:32:19.757Z,13.00
2022-09-24T21:34:49.325Z,14.25
2022-09-24T21:37:18.835Z,12.75
2022-09-24T21:39:50.386Z,12.50
2022-09-24T21:42:21.100Z,13.50
2022-09-24T21:44:50.581Z,16.25
2022-09-24T21:47:20.854Z,14.25
2022-09-24T21:49:50.222Z,16.00
2022-09-24T21:52:19.574Z,15.00
2022-09-24T21:54:49.056Z,19.00
2022-09-24T21:57:18.401Z,17.00
2022-09-24T22:00:05.081Z,19.50
2022-09-24T22:02:35.054Z,20.50
2022-09-24T22:05:04.862Z,21.00
2022-09-24T22:07:34.147Z,22.75
2022-09-24T22:10:03.626Z,21.25
2022-09-24T22:12:33.262Z,21.50
2022-09-24T22:15:04.131Z,22.75
2022-09-24T22:17:34.497Z,25.00
2022-09-24T22:20:03.822Z,24.75
2022-09-24T22:22:33.226Z,25.00
2022-09-24T22:25:02.574Z,25.00
2022-09-24T22:27:31.884Z,24.75
2022-09-24T22:30:01.915Z,21.50
2022-09-24T22:32:31.669Z,22.00
2022-09-24T22:35:19.078Z,22.75
2022-09-24T22:37:49.811Z,22.00
2022-09-24T22:40:19.120Z,22.00
2022-09-24T22:42:48.587Z,22.00
2022-09-24T22:45:18.102Z,24.25
2022-09-24T22:47:48.929Z,26.00
2022-09-24T22:50:18.580Z,25.00
2022-09-24T22:52:51.030Z,27.00
2022-09-24T22:55:20.960Z,24.25
2022-09-24T22:57:50.500Z,26.25
2022-09-24T23:00:20.143Z,25.00
2022-09-24T23:02:52.398Z,25.00
2022-09-24T23:05:21.994Z,22.75
2022-09-24T23:07:51.575Z,24.25
2022-09-24T23:10:21.191Z,22.75
2022-09-24T23:12:50.538Z,21.75
2022-09-24T23:15:20.454Z,22.00
2022-09-24T23:17:49.861Z,20.00
2022-09-24T23:20:19.376Z,22.00
2022-09-24T23:22:48.718Z,22.00
2022-09-24T23:25:22.847Z,24.25
2022-09-24T23:27:52.185Z,33.00
2022-09-24T23:30:26.339Z,30.25
2022-09-24T23:32:55.963Z,32.00
2022-09-24T23:35:25.268Z,30.00
2022-09-24T23:37:54.615Z,30.50
2022-09-24T23:40:24.015Z,29.75
2022-09-24T23:42:54.023Z,29.75
2022-09-24T23:45:23.439Z,29.25
2022-09-24T23:47:52.856Z,29.00
2022-09-24T23:50:22.171Z,26.75
2022-09-24T23:52:51.492Z,27.00
2022-09-24T23:55:20.973Z,27.25
2022-09-24T23:57:52.348Z,27.00
